Geokinetics Inc (NASDAQOTH:GEOKQ)

CAPS Rating: 2 out of 5

The Company is a global provider of seismic data acquisition services in land, marsh and swamp and shallow water environments to the oil and natural gas industry.

Results 1 - 99 of 121 : 1 2 Next »
Top
Pick
Member Name Member
Rating
Start
Date
Call Time
Frame
Start
Price
Stock
Gain
Index
Gain
Score Commentary
artcorvelay < 20 5/14/2012 Outperform 1Y $1.32 -99.43% +50.96% -150.39 0 Comment
MoneyPlusSport < 20 1/25/2012 Underperform 5Y $2.00 -99.62% +54.46% +154.08 0 Comment
jdparksASI < 20 9/7/2011 Outperform 5Y $4.60 -99.84% +68.92% -168.76 0 Comment
GreenHillFarAway 29.21 8/22/2011 Outperform 5Y $3.99 -99.81% +79.15% -178.97 0 Comment
Rehydrogenated 32.14 3/29/2011 Outperform 5Y $8.68 -99.91% +54.63% -154.55 0 Comment
2011Fool 99.40 3/25/2011 Outperform NS $8.99 -99.92% +54.48% -154.40 0 Comment
LEGMAKER < 20 2/28/2011 Outperform 5Y $10.59 -99.93% +52.64% -152.57 0 Comment
hcve < 20 1/12/2011 Outperform 3W $9.41 -99.92% +58.29% -158.21 0 Comment
MagicMaggie < 20 12/7/2010 Outperform 5Y $9.35 -99.92% +63.58% -163.50 0 Comment
OberHund < 20 12/6/2010 Outperform 5Y $9.29 -99.92% +65.33% -165.25 0 Comment
tiger6667 < 20 12/1/2010 Outperform 5Y $8.51 -99.91% +68.67% -168.58 0 Comment
bullinnature 96.18 11/9/2009 11/8/2010 Outperform 3Y $12.72 -99.94% +87.81% -187.75 0 Comment
cletedinero < 20 10/18/2010 Outperform 5Y $7.31 -99.90% +71.67% -171.57 0 Comment
brilin 62.93 10/4/2010 Outperform 5Y $6.00 -99.88% +77.27% -177.14 0 Comment
smallandmidcap 97.44 8/10/2010 Underperform 5Y $4.51 -99.83% +80.97% +180.80 0 Comment
roth450 55.82 7/20/2010 Outperform NS $3.99 -99.81% +91.50% -191.31 0 Comment
EffinObama < 20 7/19/2010 Outperform 3Y $4.06 -99.82% +90.15% -189.97 0 Comment
thisyearslosers < 20 6/29/2010 Outperform 5Y $4.12 -99.82% +93.75% -193.57 0 Comment
startunderfive < 20 6/28/2010 Outperform 5Y $4.49 -99.83% +88.28% -188.11 0 Comment
institutionsdown 69.07 6/22/2010 Outperform 5Y $4.88 -99.85% +81.98% -181.82 0 Comment
obsoleteaccount < 20 6/21/2010 Outperform 5Y $4.91 -99.85% +82.44% -182.29 0 Comment
jroren 99.17 6/21/2010 Underperform 3M $5.36 -99.86% +79.23% +179.09 0 Comment
alexdavismith 96.55 6/21/2010 Underperform 5Y $5.36 -99.86% +79.23% +179.09 0 Comment
iddqkfyou < 20 5/11/2010 Outperform 5Y $6.30 -99.88% +76.19% -176.07 1 Comment
asitka 27.45 5/3/2010 Outperform 1Y $8.74 -99.91% +69.83% -169.74 0 Comment
Genomac 33.74 4/26/2010 Outperform 5Y $9.58 -99.92% +66.38% -166.31 0 Comment
HotDdogv2 < 20 4/26/2010 Outperform 5Y $9.58 -99.92% +66.38% -166.31 0 Comment
aliuce 31.78 4/23/2010 Outperform NS $9.53 -99.92% +67.17% -167.09 0 Comment
iamvoltron 24.26 4/22/2010 Outperform 5Y $8.47 -99.91% +69.22% -169.13 0 Comment
explicitonline 54.40 4/20/2010 Underperform 1Y $8.28 -99.91% +67.85% +167.75 0 Comment
markantonythe3rd 31.11 4/20/2010 Outperform 5Y $8.21 -99.91% +68.11% -168.02 0 Comment
dashark44 95.93 4/19/2010 Outperform 5Y $7.81 -99.90% +70.69% -170.59 0 Comment
Powderiver < 20 4/12/2010 Outperform 5Y $7.94 -99.91% +69.33% -169.24 0 Comment
manjux < 20 4/1/2010 Underperform 3M $7.32 -99.90% +72.06% +171.96 0 Comment
blue2fire < 20 3/22/2010 Outperform 5Y $7.39 -99.90% +75.82% -175.72 0 Comment
StThomasMoreEsq2 94.67 12/29/2009 2/19/2010 Outperform 3M $9.89 -99.92% +79.86% -179.79 0 Comment
HasOrHasNot 23.55 1/28/2010 Outperform 3Y $10.04 -99.93% +83.96% -183.88 0 Comment
FreeMortal 29.41 1/20/2010 Outperform 5Y $10.34 -99.93% +78.55% -178.47 0 Comment
StGiannaMolla 43.66 1/11/2010 Outperform 5Y $10.53 -99.93% +76.66% -176.59 0 Comment
Clockworker < 20 1/6/2010 Outperform 5Y $9.84 -99.92% +78.48% -178.41 0 Comment
TMFPlatoish 97.25 12/16/2009 Outperform 5Y $9.27 -99.92% +81.07% -180.99 0 Comment
chinneymartin 78.65 11/13/2009 Outperform 5Y $13.20 -99.94% +84.44% -184.39 0 Comment
wkcgx2 < 20 11/9/2009 Outperform 5Y $13.18 -99.94% +86.80% -186.74 0 Comment
outperformONLY < 20 10/19/2009 Outperform 5Y $19.49 -99.96% +85.88% -185.84 0 Comment
pennycruncher 29.64 10/19/2009 Outperform 5Y $19.49 -99.96% +85.88% -185.84 0 Comment
GIGManager < 20 10/8/2009 Outperform 3Y $19.24 -99.96% +89.88% -189.85 0 Comment
TotalStrange 96.36 8/12/2009 Outperform 1Y $14.58 -99.95% +102.19% -202.14 0 Comment
jddubya < 20 6/5/2009 Outperform 5Y $14.81 -99.95% +116.10% -216.05 0 Comment
TXmaverick < 20 6/2/2009 Underperform 3W $14.00 -99.95% +115.73% +215.67 1 Comment
marcet 71.65 5/28/2009 Outperform 5Y $13.26 -99.94% +125.34% -225.29 0 Comment
cwimbish 20.02 5/28/2009 Outperform 5Y $11.46 -99.93% +126.46% -226.40 1 Comment
theMovement 86.69 5/21/2009 Outperform 1Y $9.86 -99.92% +128.99% -228.91 0 Comment
unstoppablepeon < 20 10/27/2008 Underperform NS $6.01 -99.88% +140.48% +240.36 1 Comment
moonleg 23.38 10/22/2008 Underperform 1Y $6.45 -99.88% +123.05% +222.93 0 Comment
Chiownknee 80.21 10/20/2008 Outperform 5Y $8.28 -99.91% +115.86% -215.77 0 Comment
IWalker182 26.45 10/17/2008 Outperform NS $8.44 -99.91% +118.63% -218.54 0 Comment
wakoma < 20 10/8/2008 Outperform NS $12.80 -99.94% +113.28% -213.22 1 Comment
istilldontcare 96.72 9/18/2008 Outperform 5Y $17.34 -99.96% +78.87% -178.82 0 Comment
unotsomuch < 20 8/20/2008 Outperform 3Y $19.10 -99.96% +64.23% -164.19 0 Comment
ejtrains 41.38 8/11/2008 Outperform NS $20.00 -99.96% +61.56% -161.52 0 Comment
joetheboss 56.39 6/11/2008 Outperform 3Y $19.57 -99.96% +55.65% -155.62 1 Comment
Sqwii < 20 6/10/2008 Outperform 1Y $20.32 -99.96% +54.21% -154.18 1 Comment
floridabull33 67.42 5/22/2008 Outperform 3M $20.64 -99.96% +50.88% -150.84 0 Comment
GDragonsDad 60.46 5/7/2008 Outperform NS $19.04 -99.96% +49.02% -148.99 0 Comment
TexasGeoTech < 20 4/30/2008 Outperform 3M $19.04 -99.96% +50.31% -150.27 0 Comment
JCASS714 58.18 4/29/2008 Outperform 5Y $18.82 -99.96% +50.90% -150.86 0 Comment
tuckerjack 25.89 4/17/2008 Outperform 5Y $19.60 -99.96% +54.39% -154.35 0 Comment
greengal1 < 20 4/17/2008 Outperform 3Y $19.60 -99.96% +54.39% -154.35 1 Comment
ctnotebo 36.22 4/11/2008 Outperform 3Y $17.56 -99.96% +55.91% -155.87 0 Comment
louisianacoonie 21.76 3/31/2008 Outperform NS $17.95 -99.96% +59.22% -159.17 0 Comment
bengalmomof4 82.95 3/28/2008 Underperform 3M $17.78 -99.96% +58.10% +158.06 0 Comment
chad07gt < 20 3/27/2008 Outperform NS $17.78 -99.96% +57.89% -157.85 0 Comment
MoltenTofu < 20 3/14/2008 Outperform NS $17.34 -99.96% +59.13% -159.09 0 Comment
AgendaPacific 44.10 3/14/2008 Outperform 3Y $17.34 -99.96% +59.13% -159.09 0 Comment
ToeInsider 32.63 3/10/2008 Outperform NS $16.26 -99.95% +62.77% -162.72 0 Comment
altitudeaddict 30.90 2/28/2008 Outperform 5Y $17.94 -99.96% +53.96% -153.92 0 Comment
tritterup 47.20 2/26/2008 Outperform NS $18.36 -99.96% +53.01% -152.97 0 Comment
arindamd < 20 2/26/2008 Outperform 1Y $17.79 -99.96% +53.98% -153.94 1 Comment
dmgchess 69.21 2/20/2008 Outperform 1Y $17.66 -99.96% +57.69% -157.65 0 Comment
aalvarma < 20 2/20/2008 Outperform 1Y $17.66 -99.96% +57.69% -157.65 0 Comment
thetoxman 77.91 2/14/2008 Outperform 1Y $17.31 -99.96% +54.28% -154.24 0 Comment
thatguy99 32.00 2/5/2008 Outperform 5Y $17.79 -99.96% +55.43% -155.39 0 Comment
mopomi 72.08 1/24/2008 Outperform 5Y $18.76 -99.96% +57.46% -157.42 0 Comment
ATWDLimited < 20 1/23/2008 Outperform NS $18.34 -99.96% +62.75% -162.71 0 Comment
financeman101 < 20 1/17/2008 Outperform NS $16.85 -99.96% +58.64% -158.59 0 Comment
evreeland 29.08 1/16/2008 Outperform 1Y $16.25 -99.95% +54.27% -154.22 0 Comment
Obyss 36.93 12/31/2007 Outperform 3W $19.14 -99.96% +43.64% -143.60 0 Comment
Kenster35OR 47.35 12/24/2007 Outperform 1Y $20.20 -99.96% +41.98% -141.94 0 Comment
StockRakedotcom < 20 12/13/2007 Outperform NS $22.40 -99.97% +43.21% -143.18 0 Comment
everything4less 32.17 12/13/2007 Outperform 1Y $22.40 -99.97% +43.21% -143.18 0 Comment
beachlokal < 20 12/12/2007 Outperform 5Y $23.10 -99.97% +42.08% -142.05 0 Comment
WavingSpices < 20 12/5/2007 Outperform NS $22.10 -99.97% +43.27% -143.24 0 Comment
SaltyGenes 45.73 11/27/2007 Outperform 5Y $22.14 -99.97% +49.86% -149.82 0 Comment
apper < 20 11/21/2007 Outperform 5Y $22.58 -99.97% +49.46% -149.42 0 Comment
ProjectJack < 20 11/5/2007 Outperform 1Y $19.90 -99.96% +41.31% -141.28 0 Comment
IntenseSpider 88.23 10/25/2007 Outperform NS $22.86 -99.97% +41.38% -141.35 0 Comment
tv5cents 93.45 10/23/2007 Outperform 5Y $22.00 -99.97% +40.24% -140.21 0 Comment
JR9901 83.45 10/22/2007 Outperform 5Y $21.85 -99.97% +42.69% -142.65 0 Comment
Garranova 85.12 10/22/2007 Outperform NS $21.85 -99.97% +42.69% -142.65 0 Comment
Results 1 - 99 of 121 : 1 2 Next »

Featured Broker Partners


Advertisement